Time;durP1;ratioP1;P1;durP2;ratioP2;P2;SDS_P1;SDS_P2;PMS_P1;PMS_P2;Temp;Humidity;BMP_temperature;BMP_pressure;BME280_temperature;BME280_humidity;BME280_pressure;Samples;Min_cycle;Max_cycle;Signal;HPM_P1;HPM_P2
2022/06/13 00:00:36;;;;;;;8.20;5.30;;;;;;;19.43;61.00;100374.86;111037;1247;21952;-77
2022/06/13 00:03:26;;;;;;;11.10;5.30;;;;;;;19.45;60.79;100375.21;110917;1247;23586;-76
2022/06/13 00:06:19;;;;;;;11.00;4.90;;;;;;;19.43;60.56;100373.92;110812;1247;23824;-76
2022/06/13 00:08:51;;;;;;;7.80;4.80;;;;;;;19.42;60.60;100366.73;110879;1247;22028;-76
2022/06/13 00:11:36;;;;;;;8.00;5.00;;;;;;;19.39;60.37;100362.64;111012;1247;23343;-76
2022/06/13 00:14:11;;;;;;;7.50;4.60;;;;;;;19.37;60.20;100364.57;110932;1247;22137;-76
2022/06/13 00:16:40;;;;;;;6.70;4.60;;;;;;;19.37;60.21;100359.41;110957;1246;23584;-76
2022/06/13 00:19:15;;;;;;;11.70;6.30;;;;;;;19.38;60.13;100358.78;110460;1253;21972;-77
2022/06/13 00:21:47;;;;;;;12.70;4.40;;;;;;;19.39;60.04;100351.59;110646;1254;21966;-76
2022/06/13 00:24:31;;;;;;;8.80;5.10;;;;;;;19.38;59.99;100349.59;110644;1253;21966;-77
2022/06/13 00:27:15;;;;;;;8.90;5.10;;;;;;;19.38;59.98;100346.90;110540;1253;23606;-76
2022/06/13 00:29:49;;;;;;;9.30;5.50;;;;;;;19.36;59.86;100344.49;110494;1254;21957;-77
2022/06/13 00:32:24;;;;;;;10.40;5.50;;;;;;;19.33;59.81;100344.42;110494;1254;21931;-75
2022/06/13 00:35:04;;;;;;;9.90;5.00;;;;;;;19.28;59.80;100341.63;110490;1254;22085;-75
2022/06/13 00:37:45;;;;;;;9.60;5.50;;;;;;;19.21;59.92;100338.72;110656;1254;24360;-77
2022/06/13 00:40:26;;;;;;;10.10;5.30;;;;;;;19.16;60.19;100344.01;110629;1253;23597;-76
2022/06/13 00:43:05;;;;;;;8.20;5.60;;;;;;;19.16;60.46;100346.31;110513;1250;21999;-76
2022/06/13 00:45:37;;;;;;;9.20;4.40;;;;;;;19.22;60.53;100345.54;110945;1247;21955;-76
2022/06/13 00:48:14;;;;;;;7.00;5.00;;;;;;;19.25;60.48;100353.20;110606;1253;21969;-77
2022/06/13 00:50:54;;;;;;;9.40;4.60;;;;;;;19.27;60.31;100363.85;110558;1253;22149;-75
2022/06/13 00:53:35;;;;;;;9.40;5.20;;;;;;;19.25;60.19;100379.98;110694;1253;23024;-76
2022/06/13 00:56:37;;;;;;;10.50;6.20;;;;;;;19.21;60.53;100382.95;110731;1252;22014;-76
2022/06/13 00:59:20;;;;;;;12.60;6.20;;;;;;;19.23;60.76;100375.80;110329;1256;23040;-76
2022/06/13 01:02:04;;;;;;;7.50;5.50;;;;;;;19.27;60.74;100372.05;110217;1256;23001;-75
2022/06/13 01:04:42;;;;;;;12.10;5.80;;;;;;;19.24;60.67;100368.70;110179;1259;22917;-76
2022/06/13 01:07:25;;;;;;;12.20;7.50;;;;;;;19.23;60.93;100362.95;110319;1253;22762;-76
2022/06/13 01:12:54;;;;;;;12.60;6.80;;;;;;;19.24;61.33;100363.07;110514;1253;21985;-76
2022/06/13 01:16:04;;;;;;;9.40;7.10;;;;;;;19.22;61.35;100362.92;110484;1253;23023;-76
2022/06/13 01:19:21;;;;;;;8.90;7.00;;;;;;;19.18;61.68;100355.81;111007;1247;21923;-77
2022/06/13 01:22:47;;;;;;;12.20;10.30;;;;;;;19.17;62.14;100341.23;111010;1247;22060;-76
2022/06/13 01:25:39;;;;;;;9.60;7.10;;;;;;;19.15;62.17;100335.98;110943;1247;21956;-76
2022/06/13 01:28:36;;;;;;;15.30;11.80;;;;;;;19.13;62.40;100334.64;110942;1247;21970;-76
2022/06/13 01:31:13;;;;;;;16.20;13.00;;;;;;;19.14;62.63;100327.18;111276;1247;22088;-75
2022/06/13 01:34:00;;;;;;;10.50;7.60;;;;;;;19.17;62.77;100327.35;110650;1247;22995;-75
2022/06/13 01:36:55;;;;;;;9.10;7.40;;;;;;;19.17;62.71;100325.65;111212;1247;22811;-77
2022/06/13 01:39:53;;;;;;;12.90;7.10;;;;;;;19.17;62.75;100326.15;111039;1247;21960;-76
2022/06/13 01:43:07;;;;;;;12.30;11.10;;;;;;;19.17;62.68;100324.89;111000;1247;23030;-75
2022/06/13 01:45:54;;;;;;;13.30;11.00;;;;;;;19.15;62.75;100322.15;111271;1247;21950;-76
2022/06/13 01:48:33;;;;;;;20.20;17.30;;;;;;;19.14;62.81;100319.30;111008;1247;22001;-76
2022/06/13 01:51:23;;;;;;;16.70;12.80;;;;;;;19.14;62.80;100315.11;111085;1247;23561;-77
2022/06/13 01:54:56;;;;;;;14.30;10.40;;;;;;;19.12;62.89;100310.90;110515;1254;21958;-77
2022/06/13 01:57:52;;;;;;;12.80;10.60;;;;;;;19.10;62.97;100308.58;110559;1255;21959;-77
2022/06/13 02:00:35;;;;;;;10.80;8.60;;;;;;;19.07;63.08;100310.27;110333;1256;21963;-77
2022/06/13 02:03:39;;;;;;;12.70;8.40;;;;;;;19.05;63.03;100310.90;110548;1253;23663;-77
2022/06/13 02:06:28;;;;;;;11.60;7.70;;;;;;;19.00;63.02;100313.34;110542;1253;22869;-77
2022/06/13 02:09:11;;;;;;;9.40;7.90;;;;;;;18.94;63.12;100309.51;110506;1253;21968;-77
2022/06/13 02:11:55;;;;;;;8.90;6.80;;;;;;;18.90;63.27;100306.29;110810;1247;21963;-76
2022/06/13 02:15:00;;;;;;;10.30;7.50;;;;;;;18.85;63.08;100305.04;111241;1246;23392;-77
2022/06/13 02:17:57;;;;;;;11.70;8.10;;;;;;;18.77;63.11;100298.54;110538;1254;21963;-78
2022/06/13 02:20:46;;;;;;;11.30;8.40;;;;;;;18.74;63.41;100293.02;110590;1253;21972;-77
2022/06/13 02:23:25;;;;;;;9.70;7.60;;;;;;;18.75;63.59;100289.34;110607;1253;23749;-76
2022/06/13 02:26:14;;;;;;;8.40;6.80;;;;;;;18.76;63.55;100290.52;110528;1254;23690;-76
2022/06/13 02:28:54;;;;;;;9.90;7.20;;;;;;;18.72;63.43;100290.63;110477;1253;23704;-76
2022/06/13 02:32:08;;;;;;;12.00;8.40;;;;;;;18.62;63.42;100286.89;110570;1254;23034;-75
2022/06/13 02:35:14;;;;;;;12.20;8.00;;;;;;;18.53;64.09;100275.10;109738;1262;21988;-76
2022/06/13 02:37:56;;;;;;;9.10;7.90;;;;;;;18.50;64.32;100271.05;110459;1256;21981;-76
2022/06/13 02:40:45;;;;;;;9.70;8.00;;;;;;;18.49;64.46;100262.54;110234;1256;23710;-77
2022/06/13 02:43:29;;;;;;;13.40;7.90;;;;;;;18.49;64.77;100263.96;109568;1262;21985;-76
2022/06/13 02:46:13;;;;;;;9.50;7.90;;;;;;;18.51;64.70;100264.08;109566;1263;22467;-76
2022/06/13 02:49:18;;;;;;;9.30;8.00;;;;;;;18.46;64.44;100262.53;109369;1264;22061;-76
2022/06/13 02:52:22;;;;;;;12.10;8.10;;;;;;;18.41;64.69;100262.00;109621;1264;21971;-76
2022/06/13 02:55:02;;;;;;;11.80;9.30;;;;;;;18.37;64.80;100262.79;109525;1263;22862;-76
2022/06/13 02:57:50;;;;;;;11.70;9.00;;;;;;;18.32;64.86;100250.45;109703;1263;21980;-77
2022/06/13 03:00:58;;;;;;;10.50;8.00;;;;;;;18.29;65.05;100244.92;109760;1263;21980;-76
2022/06/13 03:03:47;;;;;;;11.10;8.50;;;;;;;18.28;65.24;100241.52;108803;1271;23029;-77
2022/06/13 03:06:32;;;;;;;9.60;7.80;;;;;;;18.28;65.18;100239.31;108804;1270;22029;-77
2022/06/13 03:09:19;;;;;;;14.90;9.50;;;;;;;18.23;65.15;100239.59;109146;1266;22934;-77
2022/06/13 03:12:00;;;;;;;11.70;9.40;;;;;;;18.14;65.16;100230.77;109541;1262;23736;-76
2022/06/13 03:15:07;;;;;;;15.30;10.10;;;;;;;18.10;65.62;100223.06;110090;1259;22009;-76
2022/06/13 03:18:02;;;;;;;17.40;11.20;;;;;;;18.08;65.77;100225.51;109713;1262;23737;-76
2022/06/13 03:21:06;;;;;;;16.20;12.10;;;;;;;18.07;66.00;100219.74;109836;1260;21997;-76
2022/06/13 03:23:47;;;;;;;18.30;12.60;;;;;;;18.06;66.14;100214.95;109723;1260;21977;-76
2022/06/13 03:26:28;;;;;;;17.60;12.70;;;;;;;18.08;66.38;100208.88;109492;1263;22959;-76
2022/06/13 03:29:13;;;;;;;18.70;14.40;;;;;;;18.13;66.54;100210.83;109579;1263;21969;-76
2022/06/13 03:32:03;;;;;;;21.50;12.60;;;;;;;18.19;66.74;100214.98;109523;1263;21986;-76
2022/06/13 03:34:45;;;;;;;16.60;13.50;;;;;;;18.28;66.87;100218.04;109227;1264;23089;-77
2022/06/13 03:37:45;;;;;;;16.80;13.10;;;;;;;18.40;66.93;100214.96;109061;1268;23807;-77
2022/06/13 03:40:22;;;;;;;16.30;13.40;;;;;;;18.53;66.86;100210.27;109321;1264;23048;-76
2022/06/13 03:43:05;;;;;;;17.60;14.40;;;;;;;18.63;66.58;100208.17;109917;1257;21943;-76
2022/06/13 03:49:38;;;;;;;20.50;12.40;;;;;;;18.83;66.41;100208.39;110022;1260;21967;-78
2022/06/13 03:52:23;;;;;;;18.40;12.60;;;;;;;18.93;66.13;100208.53;110109;1259;23059;-77
2022/06/13 03:55:45;;;;;;;15.60;13.70;;;;;;;19.00;65.74;100207.58;110276;1256;23032;-76
2022/06/13 03:59:04;;;;;;;13.60;12.00;;;;;;;19.05;65.67;100214.05;110422;1256;22123;-75
2022/06/13 04:01:54;;;;;;;15.10;13.40;;;;;;;19.11;65.53;100216.77;110246;1259;21978;-76
2022/06/13 04:04:54;;;;;;;16.90;13.80;;;;;;;19.18;65.33;100221.19;110304;1256;23036;-75
2022/06/13 04:07:49;;;;;;;15.10;13.10;;;;;;;19.25;65.22;100221.85;110435;1256;23794;-77
2022/06/13 04:10:24;;;;;;;24.50;13.20;;;;;;;19.29;65.06;100216.61;107807;1256;3195998;-77
2022/06/13 04:13:50;;;;;;;15.20;13.20;;;;;;;19.32;64.77;100212.45;109651;1262;21957;-76
2022/06/13 04:16:42;;;;;;;;;;;;;;;19.37;64.68;100213.33;109134;1267;22472;-75
2022/06/13 04:19:25;;;;;;;16.40;12.50;;;;;;;19.32;64.70;100213.73;109048;1270;23654;-75
2022/06/13 04:22:39;;;;;;;18.30;14.30;;;;;;;19.33;64.70;100216.48;109052;1269;23698;-76
2022/06/13 04:26:11;;;;;;;13.20;11.80;;;;;;;19.33;64.48;100213.22;108886;1265;23713;-76
2022/06/13 04:29:34;;;;;;;18.50;13.40;;;;;;;19.32;64.65;100211.21;109748;1262;21970;-76
2022/06/13 04:32:23;;;;;;;15.90;11.10;;;;;;;19.35;64.90;100214.83;109717;1262;22200;-77
2022/06/13 04:35:31;;;;;;;17.80;13.90;;;;;;;19.42;64.87;100211.42;110001;1260;24453;-77
2022/06/13 04:38:21;;;;;;;;;;;;;;;;;;;;;
2022/06/13 04:41:04;;;;;;;17.50;13.00;;;;;;;19.53;64.62;100205.27;109997;1260;23035;-75
2022/06/13 04:43:56;;;;;;;18.00;15.70;;;;;;;19.50;64.42;100208.14;109941;1260;22037;-76
2022/06/13 04:46:29;;;;;;;13.70;12.40;;;;;;;19.46;64.42;100209.02;109881;1260;23689;-76
2022/06/13 04:49:15;;;;;;;17.60;14.20;;;;;;;19.46;64.75;100224.31;109891;1260;22110;-76
2022/06/13 04:51:56;;;;;;;15.80;12.60;;;;;;;19.46;64.82;100221.22;110514;1251;23660;-77
2022/06/13 04:55:07;;;;;;;20.60;13.00;;;;;;;19.46;64.95;100223.33;110998;1247;22084;-76
2022/06/13 04:57:38;;;;;;;13.60;11.40;;;;;;;19.44;65.09;100220.73;111118;1247;23011;-76
2022/06/13 05:00:11;;;;;;;14.00;12.40;;;;;;;19.45;65.35;100217.65;111257;1247;23045;-76
2022/06/13 05:02:52;;;;;;;16.80;10.90;;;;;;;19.49;65.33;100214.95;111079;1247;24267;-76
2022/06/13 05:05:46;;;;;;;14.20;11.90;;;;;;;19.46;65.16;100215.87;110832;1247;22002;-76
2022/06/13 05:08:32;;;;;;;11.10;10.00;;;;;;;19.43;65.49;100216.70;110976;1248;23078;-76
2022/06/13 05:11:26;;;;;;;13.30;9.30;;;;;;;19.44;65.64;100222.32;110399;1254;23132;-76
2022/06/13 05:14:24;;;;;;;10.30;8.90;;;;;;;19.44;65.61;100221.58;110499;1254;23108;-76
2022/06/13 05:17:55;;;;;;;12.60;10.20;;;;;;;19.45;65.56;100223.66;110548;1254;21959;-76
2022/06/13 05:20:36;;;;;;;11.90;9.40;;;;;;;19.43;65.34;100230.73;110635;1254;21963;-76
2022/06/13 05:23:39;;;;;;;11.10;8.40;;;;;;;19.44;65.42;100227.80;110466;1254;21987;-76
2022/06/13 05:26:15;;;;;;;9.40;7.90;;;;;;;19.48;65.58;100227.42;110612;1254;21957;-76
2022/06/13 05:29:01;;;;;;;10.80;8.90;;;;;;;19.56;65.54;100232.65;110658;1247;22279;-75
2022/06/13 05:31:37;;;;;;;8.80;8.00;;;;;;;19.60;65.13;100233.66;111020;1247;21953;-76
2022/06/13 05:34:43;;;;;;;9.00;7.70;;;;;;;19.62;65.04;100242.30;110387;1254;22071;-76
2022/06/13 05:37:26;;;;;;;8.40;7.20;;;;;;;19.67;65.16;100245.12;110457;1256;21972;-76
2022/06/13 05:40:23;;;;;;;9.10;7.00;;;;;;;19.74;64.98;100246.48;110036;1259;23062;-76
2022/06/13 05:43:04;;;;;;;12.60;7.20;;;;;;;19.79;64.54;100244.62;110156;1259;22134;-76
2022/06/13 05:45:51;;;;;;;;;;;;;;;19.77;64.35;100239.38;109890;1259;22183;-75
2022/06/13 05:48:30;;;;;;;7.60;6.00;;;;;;;19.71;64.78;100237.27;110134;1259;23810;-76
2022/06/13 05:51:12;;;;;;;;;;;;;;;19.82;64.93;100239.48;110214;1259;22907;-76
2022/06/13 05:54:04;;;;;;;11.40;6.40;;;;;;;19.86;64.84;100231.55;110662;1253;24441;-76
2022/06/13 05:56:56;;;;;;;9.00;6.50;;;;;;;19.92;64.57;100226.13;110531;1253;21977;-76
2022/06/13 05:59:47;;;;;;;12.20;6.00;;;;;;;20.01;64.57;100235.29;110885;1250;21971;-76
2022/06/13 06:02:23;;;;;;;9.90;5.80;;;;;;;20.15;64.33;100239.46;111004;1247;21954;-78
2022/06/13 06:05:02;;;;;;;9.70;6.10;;;;;;;20.27;63.99;100243.42;111053;1247;21948;-77
2022/06/13 06:07:52;;;;;;;7.30;5.30;;;;;;;20.34;63.48;100249.02;110985;1247;23019;-77
2022/06/13 06:10:33;;;;;;;11.80;5.70;;;;;;;20.37;62.86;100254.55;111213;1247;22004;-76
2022/06/13 06:13:12;;;;;;;5.90;5.20;;;;;;;20.36;62.58;100250.82;110851;1247;21962;-75
2022/06/13 06:16:01;;;;;;;6.10;5.30;;;;;;;20.40;63.05;100239.43;111038;1247;22729;-75
2022/06/13 06:18:33;;;;;;;7.50;5.10;;;;;;;20.52;62.94;100244.05;111277;1247;23023;-76
2022/06/13 06:21:04;;;;;;;5.10;4.60;;;;;;;20.61;62.49;100245.65;110754;1249;23001;-76
2022/06/13 06:23:38;;;;;;;;;;;;;;;20.65;62.07;100234.67;110463;1255;21961;-76
2022/06/13 06:26:10;;;;;;;;;;;;;;;20.68;62.57;100230.56;110348;1255;22814;-77
2022/06/13 06:28:42;;;;;;;5.30;4.30;;;;;;;20.73;62.53;100220.41;110184;1259;23063;-77
2022/06/13 06:31:15;;;;;;;6.00;5.10;;;;;;;20.83;62.31;100218.73;109573;1262;22100;-77
2022/06/13 06:33:51;;;;;;;10.90;4.90;;;;;;;20.98;62.14;100220.58;109476;1262;22042;-76
2022/06/13 06:36:29;;;;;;;6.40;4.60;;;;;;;21.12;61.63;100215.30;109713;1262;21972;-76
2022/06/13 06:38:59;;;;;;;7.60;4.60;;;;;;;21.17;60.63;100215.11;109499;1262;21985;-78
2022/06/13 06:41:33;;;;;;;10.40;4.60;;;;;;;21.18;60.16;100214.11;109930;1259;21980;-77
2022/06/13 06:44:03;;;;;;;6.50;4.30;;;;;;;21.16;59.74;100203.98;109436;1264;22039;-78
2022/06/13 06:46:37;;;;;;;6.00;4.00;;;;;;;21.10;59.69;100198.62;109716;1262;21970;-78
2022/06/13 06:49:15;;;;;;;7.80;3.90;;;;;;;21.13;59.73;100190.60;109777;1256;22149;-77
2022/06/13 06:51:48;;;;;;;5.90;3.70;;;;;;;21.17;59.79;100188.80;110369;1255;21995;-78
2022/06/13 07:00:21;;;;;;;6.70;4.40;;;;;;;21.39;59.94;100175.55;110560;1253;23580;-75
2022/06/13 07:02:53;;;;;;;5.80;4.60;;;;;;;21.48;59.67;100175.82;110894;1248;22029;-75
2022/06/13 07:05:28;;;;;;;6.80;4.60;;;;;;;21.51;59.24;100175.17;111014;1247;24120;-76
2022/06/13 07:07:57;;;;;;;8.20;4.70;;;;;;;21.56;59.49;100177.13;111019;1247;23011;-76
2022/06/13 07:10:28;;;;;;;13.40;4.30;;;;;;;21.61;59.19;100176.55;110971;1247;24451;-76
2022/06/13 07:12:57;;;;;;;5.80;4.50;;;;;;;21.64;58.97;100171.93;111035;1250;21978;-79
2022/06/13 07:15:37;;;;;;;6.30;3.80;;;;;;;21.66;58.52;100167.54;110504;1253;23027;-78
2022/06/13 07:18:12;;;;;;;4.80;3.40;;;;;;;21.71;58.41;100164.67;110047;1259;23777;-79
2022/06/13 07:20:44;;;;;;;6.70;4.00;;;;;;;21.82;58.21;100165.96;109632;1262;23036;-79
2022/06/13 07:23:19;;;;;;;5.40;4.00;;;;;;;21.92;58.11;100171.38;109458;1262;21982;-77
2022/06/13 07:25:49;;;;;;;10.20;4.40;;;;;;;22.04;57.94;100172.47;109361;1263;23026;-78
2022/06/13 07:28:18;;;;;;;8.90;4.10;;;;;;;22.15;57.59;100173.98;108841;1267;22537;-78
2022/06/13 07:30:51;;;;;;;4.70;4.00;;;;;;;22.24;57.14;100175.51;109174;1267;22016;-78
2022/06/13 07:33:24;;;;;;;7.80;4.20;;;;;;;22.32;56.96;100180.63;109174;1265;23641;-76
2022/06/13 07:35:54;;;;;;;8.50;4.90;;;;;;;22.35;56.39;100184.86;109641;1259;22008;-73
2022/06/13 07:38:26;;;;;;;7.10;3.80;;;;;;;22.40;56.40;100189.88;110228;1253;23687;-74
2022/06/13 07:41:00;;;;;;;4.80;3.90;;;;;;;22.49;56.19;100188.48;109849;1261;23034;-73
2022/06/13 07:43:34;;;;;;;7.50;4.30;;;;;;;22.57;55.80;100184.48;109686;1260;21969;-72
2022/06/13 07:46:07;;;;;;;6.40;4.50;;;;;;;22.66;55.70;100187.55;110016;1256;23593;-74
2022/06/13 07:48:37;;;;;;;34.80;5.80;;;;;;;22.79;55.74;100189.58;110458;1254;23825;-73
2022/06/13 07:51:16;;;;;;;9.10;4.50;;;;;;;22.86;54.94;100186.27;110501;1256;23698;-75
2022/06/13 07:53:56;;;;;;;7.40;4.10;;;;;;;22.91;54.91;100188.64;110480;1255;22065;-76
2022/06/13 07:56:34;;;;;;;9.80;3.70;;;;;;;23.03;55.10;100191.38;110503;1254;23678;-76
2022/06/13 07:59:07;;;;;;;7.20;3.80;;;;;;;23.13;54.64;100197.89;110156;1256;23021;-74
2022/06/13 08:01:37;;;;;;;4.70;3.70;;;;;;;23.16;54.22;100195.34;110522;1253;21963;-74
2022/06/13 08:04:06;;;;;;;7.10;3.50;;;;;;;23.13;53.94;100193.80;109823;1262;22047;-71
2022/06/13 08:06:38;;;;;;;6.00;4.10;;;;;;;23.09;53.91;100199.90;109835;1259;21979;-72
2022/06/13 08:09:09;;;;;;;10.70;4.10;;;;;;;23.02;53.74;100202.08;109955;1259;23570;-72
2022/06/13 08:11:56;;;;;;;;;;;;;;;22.92;53.88;100200.45;110214;1259;23664;-73
2022/06/13 08:14:26;;;;;;;6.40;3.80;;;;;;;22.73;54.17;100204.06;109197;1265;22084;-73
2022/06/13 08:16:55;;;;;;;7.70;4.10;;;;;;;22.69;54.49;100210.05;109454;1259;22190;-73
2022/06/13 08:19:27;;;;;;;10.80;4.40;;;;;;;22.67;54.39;100209.23;110185;1258;23586;-74
2022/06/13 08:21:56;;;;;;;7.50;3.60;;;;;;;22.63;54.30;100206.95;110101;1253;21959;-73
2022/06/13 08:24:26;;;;;;;7.60;3.60;;;;;;;22.58;54.35;100205.21;110519;1253;22847;-74
2022/06/13 08:26:55;;;;;;;6.50;3.60;;;;;;;22.53;54.59;100207.76;110570;1253;23037;-74
2022/06/13 08:29:25;;;;;;;4.80;3.10;;;;;;;22.52;55.00;100215.34;110653;1254;21996;-73
2022/06/13 08:31:54;;;;;;;6.10;3.30;;;;;;;22.53;54.82;100210.27;110543;1248;21920;-75
2022/06/13 08:34:26;;;;;;;6.80;3.40;;;;;;;22.51;54.96;100202.72;110785;1247;21989;-76
2022/06/13 08:36:56;;;;;;;5.60;3.30;;;;;;;22.50;54.99;100202.11;111019;1247;22334;-75
2022/06/13 08:39:26;;;;;;;5.70;4.10;;;;;;;22.48;55.00;100207.95;110979;1247;21953;-74
2022/06/13 08:42:22;;;;;;;10.10;6.40;;;;;;;22.45;55.00;100208.84;110697;1253;21959;-75
2022/06/13 08:45:01;;;;;;;11.10;9.60;;;;;;;22.41;55.60;100202.11;110649;1253;22078;-76
2022/06/13 08:47:56;;;;;;;13.10;9.00;;;;;;;22.37;55.75;100199.47;110544;1253;21958;-75
2022/06/13 08:51:03;;;;;;;13.60;9.40;;;;;;;22.34;56.02;100200.98;110405;1253;21925;-76
2022/06/13 08:53:54;;;;;;;15.40;9.30;;;;;;;22.38;56.42;100211.91;110574;1253;22784;-76
2022/06/13 08:56:36;;;;;;;9.10;8.20;;;;;;;22.45;56.39;100228.97;110532;1253;21993;-75
2022/06/13 08:59:34;;;;;;;14.30;8.30;;;;;;;22.48;55.84;100236.13;110570;1253;23145;-74
2022/06/13 09:02:18;;;;;;;11.20;9.00;;;;;;;22.43;55.42;100246.98;110843;1249;21958;-74
2022/06/13 09:04:59;;;;;;;11.60;8.60;;;;;;;22.33;55.41;100255.02;111260;1247;22013;-74
2022/06/13 09:07:46;;;;;;;13.80;8.30;;;;;;;22.22;55.44;100262.94;110954;1247;23480;-73
2022/06/13 09:11:06;;;;;;;16.90;9.60;;;;;;;22.04;55.26;100266.50;110916;1247;23654;-74
2022/06/13 09:13:55;;;;;;;21.20;9.60;;;;;;;21.79;55.57;100277.29;110651;1253;21976;-74
2022/06/13 09:16:33;;;;;;;15.20;9.20;;;;;;;21.55;55.64;100288.33;110424;1253;21965;-74
2022/06/13 09:19:28;;;;;;;15.20;7.80;;;;;;;21.33;56.00;100290.49;110735;1254;22042;-74
2022/06/13 09:22:27;;;;;;;13.20;7.40;;;;;;;21.15;56.67;100287.34;110662;1253;24594;-74
2022/06/13 09:25:32;;;;;;;13.50;7.10;;;;;;;21.06;57.25;100289.16;110524;1253;23085;-74
2022/06/13 09:28:10;;;;;;;10.10;6.00;;;;;;;20.95;57.20;100291.29;110485;1254;21970;-74
2022/06/13 09:30:54;;;;;;;32.70;9.40;;;;;;;20.85;57.52;100297.59;110008;1261;21977;-74
2022/06/13 09:33:32;;;;;;;11.40;7.30;;;;;;;20.83;57.92;100294.58;110015;1260;21989;-73
2022/06/13 09:36:39;;;;;;;16.20;7.60;;;;;;;20.83;58.30;100272.85;109246;1267;22920;-73
2022/06/13 09:39:16;;;;;;;13.10;6.80;;;;;;;20.85;58.75;100255.91;108981;1267;23108;-74
2022/06/13 09:42:24;;;;;;;11.70;5.80;;;;;;;20.96;59.33;100246.95;108967;1267;22885;-73
2022/06/13 09:45:24;;;;;;;13.30;6.20;;;;;;;20.95;58.54;100240.11;109482;1265;21962;-74
2022/06/13 09:49:00;;;;;;;11.50;6.60;;;;;;;20.95;58.91;100238.66;109472;1265;22216;-74
2022/06/13 09:52:04;;;;;;;13.30;6.40;;;;;;;21.05;59.95;100240.90;109960;1261;23764;-74
2022/06/13 09:55:21;;;;;;;10.40;5.20;;;;;;;21.29;60.09;100245.28;110226;1258;21966;-75
2022/06/13 09:58:35;;;;;;;9.90;6.20;;;;;;;21.54;59.50;100243.98;109807;1262;23778;-73
2022/06/13 10:01:32;;;;;;;10.30;6.00;;;;;;;21.69;58.35;100248.73;109754;1262;22946;-73
2022/06/13 10:04:27;;;;;;;10.40;6.40;;;;;;;21.67;57.90;100252.77;108594;1274;23584;-75
2022/06/13 10:07:11;;;;;;;;;;;;;;;21.60;57.79;100260.69;108528;1274;23042;-75
2022/06/13 10:10:06;;;;;;;15.60;8.30;;;;;;;21.47;58.08;100264.48;108531;1274;22106;-74
2022/06/13 10:13:25;;;;;;;26.80;12.20;;;;;;;21.45;58.30;100266.59;108537;1272;22847;-75
2022/06/13 10:16:45;;;;;;;20.60;8.40;;;;;;;21.36;57.87;100271.27;108394;1278;24403;-75
2022/06/13 10:19:33;;;;;;;10.90;7.40;;;;;;;21.18;57.46;100288.47;108323;1279;23083;-74
2022/06/13 10:22:19;;;;;;;12.80;6.80;;;;;;;20.97;57.58;100300.04;108502;1270;23112;-75
2022/06/13 10:25:16;;;;;;;8.90;7.40;;;;;;;20.78;58.08;100296.38;108540;1273;22005;-73
2022/06/13 10:28:09;;;;;;;13.70;7.70;;;;;;;20.56;58.61;100287.90;108610;1273;21993;-75
2022/06/13 10:31:34;;;;;;;17.80;8.30;;;;;;;20.40;59.49;100290.23;108680;1273;22016;-73
2022/06/13 10:34:21;;;;;;;13.40;9.20;;;;;;;20.24;60.21;100278.55;108619;1270;21959;-74
2022/06/13 10:37:00;;;;;;;20.90;9.90;;;;;;;20.14;60.98;100285.48;109290;1267;21988;-74
2022/06/13 10:39:31;;;;;;;11.20;7.70;;;;;;;20.03;61.28;100274.81;108826;1271;22020;-76
2022/06/13 10:42:10;;;;;;;10.90;6.90;;;;;;;19.93;61.67;100264.70;109171;1264;22009;-76
2022/06/13 10:44:40;;;;;;;10.10;7.90;;;;;;;19.85;62.20;100286.09;110063;1259;22018;-75
2022/06/13 10:47:46;;;;;;;8.70;6.90;;;;;;;19.76;62.54;100292.05;109910;1262;23600;-75
2022/06/13 10:50:45;;;;;;;9.90;6.50;;;;;;;19.63;63.10;100302.66;109554;1265;21979;-75
2022/06/13 10:53:37;;;;;;;12.00;7.50;;;;;;;19.51;63.51;100307.66;110086;1258;21971;-76
2022/06/13 10:56:25;;;;;;;7.10;6.40;;;;;;;19.39;63.85;100312.49;109964;1259;22026;-76
2022/06/13 10:58:58;;;;;;;9.10;6.20;;;;;;;19.26;63.95;100322.30;110251;1257;21975;-76
2022/06/13 11:01:58;;;;;;;8.60;5.20;;;;;;;19.12;64.09;100335.61;110347;1259;22134;-76
2022/06/13 11:04:32;;;;;;;9.30;6.00;;;;;;;18.98;64.39;100343.79;110333;1257;21981;-76
2022/06/13 11:07:24;;;;;;;8.30;6.20;;;;;;;18.91;64.65;100340.20;110625;1256;21929;-76
2022/06/13 11:10:40;;;;;;;9.30;6.80;;;;;;;18.87;65.29;100357.64;110575;1256;21976;-76
2022/06/13 11:13:18;;;;;;;9.20;6.20;;;;;;;18.88;65.76;100369.68;110338;1256;21958;-77
2022/06/13 11:22:48;;;;;;;6.10;5.00;;;;;;;18.80;65.18;100366.11;110140;1260;21977;-76
2022/06/13 11:25:30;;;;;;;7.40;5.50;;;;;;;18.76;65.02;100359.14;109244;1265;21986;-75
2022/06/13 11:28:11;;;;;;;8.10;5.90;;;;;;;18.72;65.13;100357.14;109792;1259;21966;-76
2022/06/13 11:30:49;;;;;;;7.30;5.50;;;;;;;18.71;65.12;100358.10;110046;1259;23761;-76
2022/06/13 11:33:42;;;;;;;10.20;5.80;;;;;;;18.66;64.92;100355.66;109426;1262;21988;-78
2022/06/13 11:36:28;;;;;;;7.30;5.70;;;;;;;18.60;64.92;100351.56;109394;1265;23722;-76
2022/06/13 11:39:05;;;;;;;;;;;;;;;18.54;65.01;100351.88;109313;1266;22176;-76
2022/06/13 11:41:46;;;;;;;7.40;4.70;;;;;;;18.43;65.51;100354.20;109275;1265;22108;-76
2022/06/13 11:44:21;;;;;;;7.80;5.30;;;;;;;18.41;65.65;100352.61;109733;1261;22054;-75
2022/06/13 11:46:54;;;;;;;7.50;5.30;;;;;;;18.42;65.80;100353.02;109928;1260;23606;-76
2022/06/13 11:49:38;;;;;;;8.50;5.70;;;;;;;18.44;66.01;100347.67;109815;1263;23716;-76
2022/06/13 11:52:09;;;;;;;9.90;6.00;;;;;;;18.45;66.08;100345.16;109778;1259;21980;-76
2022/06/13 11:54:40;;;;;;;11.30;5.90;;;;;;;18.44;66.11;100334.86;110358;1258;22069;-74
2022/06/13 11:57:14;;;;;;;12.50;7.10;;;;;;;18.43;66.31;100333.17;109666;1262;23056;-75
2022/06/13 12:00:02;;;;;;;9.10;6.10;;;;;;;18.44;66.51;100330.36;109623;1262;23602;-75
2022/06/13 12:03:24;;;;;;;8.50;6.10;;;;;;;18.46;66.77;100319.98;110736;1257;23594;-75
2022/06/13 12:06:13;;;;;;;7.10;6.40;;;;;;;18.49;67.16;100320.23;109669;1262;23590;-76
2022/06/13 12:09:03;;;;;;;7.60;6.70;;;;;;;18.54;67.25;100316.85;109454;1262;22188;-75
2022/06/13 12:11:48;;;;;;;11.30;8.20;;;;;;;18.59;67.25;100314.17;109674;1263;22654;-76
2022/06/13 12:14:18;;;;;;;10.00;9.00;;;;;;;18.62;67.02;100314.10;109700;1263;22267;-76
2022/06/13 12:17:08;;;;;;;8.70;6.90;;;;;;;18.63;66.94;100319.27;109991;1258;22380;-76
2022/06/13 12:20:16;;;;;;;9.80;6.60;;;;;;;18.61;67.00;100334.20;110268;1258;23055;-75
2022/06/13 12:23:03;;;;;;;9.50;5.80;;;;;;;18.62;67.23;100342.95;110303;1258;23344;-76
2022/06/13 12:26:07;;;;;;;8.90;6.70;;;;;;;18.63;67.10;100342.74;110064;1258;23039;-77
2022/06/13 12:29:16;;;;;;;9.00;5.60;;;;;;;18.61;67.06;100338.48;110212;1258;23493;-76
2022/06/13 12:32:06;;;;;;;10.60;5.90;;;;;;;18.61;67.57;100332.54;110426;1257;21978;-76
2022/06/13 12:35:16;;;;;;;7.40;6.10;;;;;;;18.68;67.58;100332.05;110163;1260;24518;-77
2022/06/13 12:38:08;;;;;;;9.10;5.80;;;;;;;18.74;67.40;100323.95;110151;1258;22106;-76
2022/06/13 12:41:04;;;;;;;8.60;6.10;;;;;;;18.82;67.47;100316.39;110307;1258;22444;-77
2022/06/13 12:44:01;;;;;;;10.00;6.90;;;;;;;18.87;67.16;100315.42;110419;1254;22212;-76
2022/06/13 12:46:44;;;;;;;10.80;7.10;;;;;;;18.93;67.14;100315.85;110598;1253;21962;-76
2022/06/13 12:50:02;;;;;;;11.10;8.20;;;;;;;19.02;67.19;100317.48;110522;1253;24274;-76
2022/06/13 12:53:08;;;;;;;14.60;8.60;;;;;;;19.22;67.86;100318.67;110509;1253;22003;-76
2022/06/13 12:55:50;;;;;;;11.40;8.10;;;;;;;19.43;67.74;100318.13;110660;1253;21973;-77
2022/06/13 12:58:37;;;;;;;12.30;8.60;;;;;;;19.61;67.42;100319.79;110498;1256;23670;-76
2022/06/13 13:01:27;;;;;;;12.30;8.60;;;;;;;19.77;67.33;100317.42;110515;1253;24125;-77
2022/06/13 13:04:43;;;;;;;10.00;8.50;;;;;;;19.96;67.21;100318.08;110763;1250;23021;-76